createdAt,value
2023-02-03T00:02:21.481Z,0.49
2023-02-03T00:06:25.138Z,0.41
2023-02-03T00:10:28.656Z,0.36
2023-02-03T00:14:33.821Z,0.38
2023-02-03T00:18:39.323Z,0.40
2023-02-03T00:22:42.336Z,0.41
2023-02-03T00:26:45.198Z,0.39
2023-02-03T00:30:48.129Z,0.40
2023-02-03T00:34:52.684Z,0.39
2023-02-03T00:38:56.185Z,0.38
2023-02-03T00:42:59.337Z,0.31
2023-02-03T00:47:02.331Z,0.28
2023-02-03T00:51:07.564Z,0.22
2023-02-03T00:55:10.919Z,0.19
2023-02-03T00:59:14.084Z,0.14
2023-02-03T01:03:18.719Z,0.12
2023-02-03T01:07:23.386Z,0.08
2023-02-03T01:11:27.815Z,0.08
2023-02-03T01:15:30.897Z,0.06
2023-02-03T01:19:34.087Z,0.00
2023-02-03T01:23:39.528Z,-0.01
2023-02-03T01:27:42.649Z,-0.09
2023-02-03T01:31:48.563Z,-0.12
2023-02-03T01:35:51.213Z,-0.16
2023-02-03T01:39:55.553Z,-0.17
2023-02-03T01:44:00.588Z,-0.14
2023-02-03T01:48:03.369Z,-0.16
2023-02-03T01:52:07.542Z,-0.18
2023-02-03T01:56:13.539Z,-0.18
2023-02-03T02:00:17.165Z,-0.17
2023-02-03T02:04:21.205Z,-0.20
2023-02-03T02:08:25.445Z,-0.20
2023-02-03T02:12:30.034Z,-0.24
2023-02-03T02:16:42.768Z,-0.27
2023-02-03T02:21:35.895Z,-0.31
2023-02-03T02:26:09.475Z,-0.33
2023-02-03T02:30:50.908Z,-0.38
2023-02-03T02:35:03.977Z,-0.41
2023-02-03T02:39:16.876Z,-0.47
2023-02-03T02:43:24.227Z,-0.46
2023-02-03T02:47:27.469Z,-0.49
2023-02-03T02:51:33.234Z,-0.51
2023-02-03T02:55:41.204Z,-0.56
2023-02-03T02:59:44.428Z,-0.62
2023-02-03T03:03:47.993Z,-0.67
2023-02-03T03:07:59.396Z,-0.70
2023-02-03T03:12:09.410Z,-0.69
2023-02-03T03:16:17.006Z,-0.70
2023-02-03T03:20:26.370Z,-0.74
2023-02-03T03:24:38.122Z,-0.79
2023-02-03T03:28:48.573Z,-0.83
2023-02-03T03:32:52.399Z,-0.88
2023-02-03T03:37:02.249Z,-0.93
2023-02-03T03:41:10.181Z,-1.02
2023-02-03T03:45:20.321Z,-1.05
2023-02-03T03:49:26.089Z,-1.02
2023-02-03T03:53:31.559Z,-1.00
2023-02-03T03:57:41.136Z,-0.99
2023-02-03T04:01:45.037Z,-0.97
2023-02-03T04:05:48.078Z,-0.96
2023-02-03T04:09:51.335Z,-0.90
2023-02-03T04:13:55.896Z,-0.90
2023-02-03T04:17:59.063Z,-0.88
2023-02-03T04:22:02.051Z,-0.86
2023-02-03T04:26:05.082Z,-0.86
2023-02-03T04:30:11.934Z,-0.87
2023-02-03T04:34:14.950Z,-0.87
2023-02-03T04:38:17.935Z,-0.89
2023-02-03T04:42:21.193Z,-0.94
2023-02-03T04:46:25.622Z,-1.01
2023-02-03T04:50:36.988Z,-1.08
2023-02-03T04:54:39.790Z,-1.26
2023-02-03T04:58:45.659Z,-1.48
2023-02-03T05:02:50.063Z,-1.67
2023-02-03T05:06:53.316Z,-1.83
2023-02-03T05:10:56.265Z,-1.91
2023-02-03T05:14:59.133Z,-2.05
2023-02-03T05:19:03.965Z,-2.16
2023-02-03T05:23:06.922Z,-2.25
2023-02-03T05:27:09.878Z,-2.33
2023-02-03T05:31:12.869Z,-2.44
2023-02-03T05:35:18.053Z,-2.53
2023-02-03T05:39:21.018Z,-2.63
2023-02-03T05:43:24.167Z,-2.68
2023-02-03T05:47:30.495Z,-2.66
2023-02-03T05:51:34.785Z,-2.64
2023-02-03T05:55:38.278Z,-2.65
2023-02-03T05:59:41.220Z,-2.64
2023-02-03T06:03:46.165Z,-2.69
2023-02-03T06:07:51.700Z,-2.67
2023-02-03T06:11:54.927Z,-2.66
2023-02-03T06:15:58.042Z,-2.65
2023-02-03T06:20:01.089Z,-2.67
2023-02-03T06:24:05.968Z,-2.66
2023-02-03T06:28:09.155Z,-2.62
2023-02-03T06:32:14.037Z,-2.52
2023-02-03T06:36:16.926Z,-2.46
2023-02-03T06:40:25.009Z,-2.35
2023-02-03T06:44:28.477Z,-2.19
2023-02-03T06:48:31.492Z,-1.94
2023-02-03T06:52:34.495Z,-1.69
2023-02-03T06:56:39.469Z,-1.47
2023-02-03T07:00:42.606Z,-1.27
2023-02-03T07:04:46.312Z,-1.06
2023-02-03T07:08:49.256Z,-0.97
2023-02-03T07:12:53.559Z,-0.93
2023-02-03T07:16:56.519Z,-0.89
2023-02-03T07:20:59.505Z,-0.79
2023-02-03T07:25:02.072Z,-0.65
2023-02-03T07:29:06.775Z,-0.48
2023-02-03T07:33:15.052Z,-0.19
2023-02-03T07:37:18.114Z,0.17
2023-02-03T07:41:21.337Z,0.59
2023-02-03T07:45:28.147Z,1.03
2023-02-03T07:49:32.001Z,1.19
2023-02-03T07:53:35.550Z,1.72
2023-02-03T07:57:43.655Z,2.10
2023-02-03T08:01:49.601Z,2.08
2023-02-03T08:05:53.667Z,2.04
2023-02-03T08:09:56.998Z,1.98
2023-02-03T08:14:00.558Z,1.69
2023-02-03T08:18:09.474Z,1.63
2023-02-03T08:22:16.293Z,1.70
2023-02-03T08:26:44.275Z,1.87
2023-02-03T08:30:50.685Z,1.93
2023-02-03T08:34:56.192Z,2.09
2023-02-03T08:38:59.541Z,2.32
2023-02-03T08:43:02.518Z,2.57
2023-02-03T08:47:05.715Z,2.60
2023-02-03T08:51:13.152Z,2.83
2023-02-03T08:55:15.935Z,2.76
2023-02-03T08:59:19.804Z,2.65
2023-02-03T09:03:22.929Z,2.34
2023-02-03T09:07:28.255Z,2.33
2023-02-03T09:11:31.041Z,2.31
2023-02-03T09:15:36.696Z,2.25
2023-02-03T09:19:40.210Z,2.34
2023-02-03T09:23:46.531Z,2.33
2023-02-03T09:27:49.458Z,2.36
2023-02-03T09:31:55.693Z,2.14
2023-02-03T09:35:59.803Z,2.19
2023-02-03T09:40:04.367Z,2.31
2023-02-03T09:44:15.821Z,2.74
2023-02-03T09:48:25.307Z,2.80
2023-02-03T09:52:32.663Z,2.84
2023-02-03T09:56:38.358Z,2.77
2023-02-03T10:00:44.864Z,2.72
2023-02-03T10:04:58.677Z,2.58
2023-02-03T10:09:24.601Z,2.43
2023-02-03T10:13:41.771Z,2.35
2023-02-03T10:17:50.116Z,2.28
2023-02-03T10:21:59.027Z,2.22
2023-02-03T10:26:07.022Z,2.08
2023-02-03T10:30:21.766Z,2.13
2023-02-03T10:34:27.084Z,2.19
2023-02-03T10:38:42.530Z,2.03
2023-02-03T10:43:06.069Z,2.01
2023-02-03T10:47:29.550Z,1.91
2023-02-03T10:51:38.836Z,1.82
2023-02-03T10:55:45.730Z,1.77
2023-02-03T10:59:50.573Z,1.70
2023-02-03T11:04:04.170Z,1.69
2023-02-03T11:08:16.306Z,1.62
2023-02-03T11:12:21.232Z,1.74
2023-02-03T11:16:25.940Z,1.81
2023-02-03T11:20:33.783Z,1.79
2023-02-03T11:24:41.711Z,1.84
2023-02-03T11:28:50.332Z,1.86
2023-02-03T11:32:54.046Z,1.98
2023-02-03T11:37:12.129Z,2.03
2023-02-03T11:41:23.050Z,1.99
2023-02-03T11:45:28.822Z,2.32
2023-02-03T11:49:51.693Z,2.53
2023-02-03T11:54:07.922Z,2.51
2023-02-03T11:58:41.127Z,2.40
2023-02-03T12:03:19.274Z,2.40
2023-02-03T12:07:52.587Z,2.30
2023-02-03T12:12:25.941Z,2.01
2023-02-03T12:16:50.101Z,2.07
2023-02-03T12:21:05.589Z,2.12
2023-02-03T12:25:19.817Z,2.08
2023-02-03T12:29:32.043Z,1.85
2023-02-03T12:33:43.204Z,1.70
2023-02-03T12:37:51.501Z,1.47
2023-02-03T12:42:02.933Z,1.35
2023-02-03T12:46:16.317Z,1.08
2023-02-03T12:50:23.498Z,0.95
2023-02-03T12:54:36.338Z,0.82
2023-02-03T12:58:42.722Z,0.62
2023-02-03T13:03:00.504Z,0.54
2023-02-03T13:07:14.379Z,0.50
2023-02-03T13:11:24.968Z,0.47
2023-02-03T13:15:32.741Z,0.45
2023-02-03T13:19:42.569Z,0.41
2023-02-03T13:23:48.314Z,0.35
2023-02-03T13:28:00.703Z,0.28
2023-02-03T13:32:15.945Z,0.20
2023-02-03T13:36:45.519Z,0.14
2023-02-03T13:40:59.319Z,0.11
2023-02-03T13:45:14.842Z,0.13
2023-02-03T13:49:25.867Z,0.08
2023-02-03T13:53:36.609Z,0.06
2023-02-03T13:57:40.382Z,0.04
2023-02-03T14:01:44.776Z,0.08
2023-02-03T14:05:51.131Z,0.10
2023-02-03T14:10:22.175Z,0.03
2023-02-03T14:14:59.013Z,-0.03
2023-02-03T14:19:01.876Z,-0.05
2023-02-03T14:23:12.586Z,-0.05
2023-02-03T14:27:22.919Z,-0.09
2023-02-03T14:31:29.011Z,-0.18
2023-02-03T14:35:35.128Z,-0.13
2023-02-03T14:39:59.703Z,-0.08
2023-02-03T14:44:11.132Z,-0.15
2023-02-03T14:48:30.197Z,-0.11
2023-02-03T14:52:54.750Z,-0.08
2023-02-03T14:57:19.909Z,-0.14
2023-02-03T15:01:48.664Z,-0.17
2023-02-03T15:05:54.068Z,-0.23
2023-02-03T15:09:59.271Z,-0.14
2023-02-03T15:14:21.866Z,-0.16
2023-02-03T15:18:32.037Z,-0.16
2023-02-03T15:22:40.625Z,-0.24
2023-02-03T15:26:48.847Z,-0.19
2023-02-03T15:30:58.553Z,-0.24
2023-02-03T15:35:06.433Z,-0.22
2023-02-03T15:39:23.296Z,-0.26
2023-02-03T15:43:34.344Z,-0.20
2023-02-03T15:47:42.094Z,-0.24
2023-02-03T15:51:51.393Z,-0.29
2023-02-03T15:56:00.166Z,-0.32
2023-02-03T16:00:10.164Z,-0.31
2023-02-03T16:04:14.829Z,-0.35
2023-02-03T16:08:35.904Z,-0.37
2023-02-03T16:12:42.882Z,-0.32
2023-02-03T16:17:04.465Z,-0.35
2023-02-03T16:21:08.561Z,-0.33
2023-02-03T16:25:20.989Z,-0.33
2023-02-03T16:29:48.332Z,-0.29
2023-02-03T16:34:09.619Z,-0.31
2023-02-03T16:38:35.333Z,-0.37
2023-02-03T16:42:59.020Z,-0.35
2023-02-03T16:47:20.826Z,-0.32
2023-02-03T16:51:23.931Z,-0.35
2023-02-03T16:55:27.685Z,-0.38
2023-02-03T16:59:35.917Z,-0.37
2023-02-03T17:03:40.456Z,-0.35
2023-02-03T17:07:43.474Z,-0.35
2023-02-03T17:11:46.667Z,-0.28
2023-02-03T17:15:53.969Z,-0.27
2023-02-03T17:19:57.334Z,-0.31
2023-02-03T17:24:02.669Z,-0.29
2023-02-03T17:28:06.211Z,-0.24
2023-02-03T17:32:15.286Z,-0.20
2023-02-03T17:36:21.904Z,-0.21
2023-02-03T17:53:27.535Z,-0.32
2023-02-03T17:57:34.554Z,-0.32
2023-02-03T18:01:39.276Z,-0.34
2023-02-03T18:05:51.816Z,-0.33
2023-02-03T18:10:00.635Z,-0.23
2023-02-03T18:14:05.385Z,-0.32
2023-02-03T18:18:08.458Z,-0.29
2023-02-03T18:22:12.853Z,-0.33
2023-02-03T18:26:16.028Z,-0.35
2023-02-03T18:30:21.943Z,-0.34
2023-02-03T18:34:25.949Z,-0.36
2023-02-03T18:38:33.261Z,-0.37
2023-02-03T18:42:36.877Z,-0.34
2023-02-03T18:46:40.402Z,-0.34
2023-02-03T18:50:45.040Z,-0.29
2023-02-03T18:54:49.744Z,-0.22
2023-02-03T18:58:53.186Z,-0.26
2023-02-03T19:03:06.203Z,-0.26
2023-02-03T19:07:09.581Z,-0.23
2023-02-03T19:11:15.463Z,-0.26
2023-02-03T19:15:20.774Z,-0.29
2023-02-03T19:19:24.084Z,-0.24
2023-02-03T19:23:27.461Z,-0.26
2023-02-03T19:27:32.844Z,-0.32
2023-02-03T19:31:36.996Z,-0.30
2023-02-03T19:35:40.236Z,-0.30
2023-02-03T19:39:47.038Z,-0.28
2023-02-03T19:43:52.361Z,-0.29
2023-02-03T19:47:55.582Z,-0.29
2023-02-03T19:51:59.016Z,-0.26
2023-02-03T19:56:02.226Z,-0.27
2023-02-03T20:00:08.929Z,-0.29
2023-02-03T20:04:15.906Z,-0.25
2023-02-03T20:08:27.967Z,-0.26
2023-02-03T20:12:51.255Z,-0.27
2023-02-03T20:16:59.292Z,-0.21
2023-02-03T20:21:07.334Z,-0.24
2023-02-03T20:25:19.659Z,-0.26
2023-02-03T20:29:25.811Z,-0.25
2023-02-03T20:33:32.096Z,-0.24
2023-02-03T20:37:36.346Z,-0.24
2023-02-03T20:41:41.139Z,-0.19
2023-02-03T20:45:44.608Z,-0.25
2023-02-03T20:49:50.046Z,-0.25
2023-02-03T20:53:53.622Z,-0.26
2023-02-03T20:57:57.229Z,-0.29
2023-02-03T21:02:08.491Z,-0.29
2023-02-03T21:06:17.670Z,-0.29
2023-02-03T21:10:22.423Z,-0.28
2023-02-03T21:14:30.659Z,-0.25
2023-02-03T21:18:41.269Z,-0.27
2023-02-03T21:22:45.960Z,-0.27
2023-02-03T21:26:49.808Z,-0.28
2023-02-03T21:30:52.768Z,-0.27
2023-02-03T21:34:56.810Z,-0.27
2023-02-03T21:39:01.615Z,-0.26
2023-02-03T21:43:04.878Z,-0.23
2023-02-03T21:47:13.293Z,-0.28
2023-02-03T21:51:19.288Z,-0.29
2023-02-03T21:55:23.993Z,-0.32
2023-02-03T21:59:42.471Z,-0.33
2023-02-03T22:03:48.785Z,-0.31
2023-02-03T22:07:51.860Z,-0.31
2023-02-03T22:11:56.598Z,-0.33
2023-02-03T22:16:00.306Z,-0.34
2023-02-03T22:20:05.387Z,-0.32
2023-02-03T22:24:08.702Z,-0.36
2023-02-03T22:28:15.796Z,-0.37
2023-02-03T22:32:20.947Z,-0.37
2023-02-03T22:36:24.301Z,-0.34
2023-02-03T22:40:28.324Z,-0.34
2023-02-03T22:44:35.335Z,-0.37
2023-02-03T22:48:38.414Z,-0.39
2023-02-03T22:52:42.116Z,-0.44
2023-02-03T22:56:44.949Z,-0.49
2023-02-03T23:00:49.590Z,-0.51
2023-02-03T23:04:52.958Z,-0.49
2023-02-03T23:08:57.096Z,-0.56
2023-02-03T23:13:01.855Z,-0.50
2023-02-03T23:17:06.404Z,-0.56
2023-02-03T23:21:09.688Z,-0.54
2023-02-03T23:25:14.013Z,-0.57
2023-02-03T23:29:17.441Z,-0.57
2023-02-03T23:33:22.852Z,-0.58
2023-02-03T23:37:26.406Z,-0.61
2023-02-03T23:41:29.288Z,-0.63
2023-02-03T23:45:32.560Z,-0.63
2023-02-03T23:49:37.185Z,-0.64
2023-02-03T23:53:40.946Z,-0.69
2023-02-03T23:57:44.891Z,-0.78
